sensor_id;sensor_type;location;lat;lon;timestamp;P1;durP1;ratioP1;P2;durP2;ratioP2
48002;SDS011;33768;48.578;11.574;2022-09-24T00:00:45;7.90;;;5.97;;
48002;SDS011;33768;48.578;11.574;2022-09-24T00:03:56;8.40;;;6.20;;
48002;SDS011;33768;48.578;11.574;2022-09-24T00:07:03;8.77;;;5.97;;
48002;SDS011;33768;48.578;11.574;2022-09-24T00:10:07;8.13;;;6.17;;
48002;SDS011;33768;48.578;11.574;2022-09-24T00:13:13;8.90;;;6.80;;
48002;SDS011;33768;48.578;11.574;2022-09-24T00:16:19;9.97;;;6.53;;
48002;SDS011;33768;48.578;11.574;2022-09-24T00:19:25;8.80;;;6.47;;
48002;SDS011;33768;48.578;11.574;2022-09-24T00:22:31;8.03;;;6.60;;
48002;SDS011;33768;48.578;11.574;2022-09-24T00:25:45;10.97;;;6.70;;
48002;SDS011;33768;48.578;11.574;2022-09-24T00:29:09;12.30;;;7.13;;
48002;SDS011;33768;48.578;11.574;2022-09-24T00:32:16;9.00;;;6.13;;
48002;SDS011;33768;48.578;11.574;2022-09-24T00:35:20;9.50;;;5.87;;
48002;SDS011;33768;48.578;11.574;2022-09-24T00:38:29;9.13;;;7.10;;
48002;SDS011;33768;48.578;11.574;2022-09-24T00:41:35;9.37;;;6.77;;
48002;SDS011;33768;48.578;11.574;2022-09-24T00:47:47;7.60;;;6.53;;
48002;SDS011;33768;48.578;11.574;2022-09-24T00:50:52;8.90;;;6.73;;
48002;SDS011;33768;48.578;11.574;2022-09-24T00:54:03;10.13;;;7.10;;
48002;SDS011;33768;48.578;11.574;2022-09-24T00:57:11;8.10;;;6.67;;
48002;SDS011;33768;48.578;11.574;2022-09-24T01:00:17;10.70;;;7.23;;
48002;SDS011;33768;48.578;11.574;2022-09-24T01:03:22;8.50;;;6.90;;
48002;SDS011;33768;48.578;11.574;2022-09-24T01:06:28;13.07;;;7.47;;
48002;SDS011;33768;48.578;11.574;2022-09-24T01:09:32;7.03;;;6.17;;
48002;SDS011;33768;48.578;11.574;2022-09-24T01:16:17;10.53;;;6.30;;
48002;SDS011;33768;48.578;11.574;2022-09-24T01:33:02;10.43;;;6.10;;
48002;SDS011;33768;48.578;11.574;2022-09-24T01:36:11;8.20;;;6.23;;
48002;SDS011;33768;48.578;11.574;2022-09-24T01:39:17;6.60;;;5.90;;
48002;SDS011;33768;48.578;11.574;2022-09-24T01:42:24;8.43;;;6.13;;
48002;SDS011;33768;48.578;11.574;2022-09-24T01:45:31;8.57;;;6.23;;
48002;SDS011;33768;48.578;11.574;2022-09-24T01:48:38;6.97;;;5.77;;
48002;SDS011;33768;48.578;11.574;2022-09-24T01:51:48;7.60;;;6.17;;
48002;SDS011;33768;48.578;11.574;2022-09-24T01:54:54;8.17;;;5.77;;
48002;SDS011;33768;48.578;11.574;2022-09-24T01:58:02;9.67;;;5.60;;
48002;SDS011;33768;48.578;11.574;2022-09-24T02:01:13;8.43;;;6.17;;
48002;SDS011;33768;48.578;11.574;2022-09-24T02:04:23;9.53;;;6.13;;
48002;SDS011;33768;48.578;11.574;2022-09-24T02:07:41;8.83;;;6.63;;
48002;SDS011;33768;48.578;11.574;2022-09-24T02:10:56;7.33;;;6.40;;
48002;SDS011;33768;48.578;11.574;2022-09-24T02:14:07;9.23;;;7.43;;
48002;SDS011;33768;48.578;11.574;2022-09-24T02:17:17;7.97;;;6.87;;
48002;SDS011;33768;48.578;11.574;2022-09-24T02:20:22;9.73;;;6.90;;
48002;SDS011;33768;48.578;11.574;2022-09-24T02:23:28;10.40;;;6.97;;
48002;SDS011;33768;48.578;11.574;2022-09-24T02:26:36;6.93;;;6.23;;
48002;SDS011;33768;48.578;11.574;2022-09-24T02:29:40;6.97;;;6.27;;
48002;SDS011;33768;48.578;11.574;2022-09-24T02:32:44;10.97;;;7.00;;
48002;SDS011;33768;48.578;11.574;2022-09-24T02:35:50;7.13;;;6.23;;
48002;SDS011;33768;48.578;11.574;2022-09-24T02:38:55;7.40;;;6.70;;
48002;SDS011;33768;48.578;11.574;2022-09-24T02:41:59;10.80;;;7.30;;
48002;SDS011;33768;48.578;11.574;2022-09-24T02:45:04;7.00;;;6.10;;
48002;SDS011;33768;48.578;11.574;2022-09-24T02:48:08;8.00;;;6.70;;
48002;SDS011;33768;48.578;11.574;2022-09-24T02:51:12;8.80;;;6.33;;
48002;SDS011;33768;48.578;11.574;2022-09-24T02:54:17;12.13;;;7.37;;
48002;SDS011;33768;48.578;11.574;2022-09-24T02:57:21;9.13;;;6.63;;
48002;SDS011;33768;48.578;11.574;2022-09-24T03:00:25;10.27;;;7.17;;
48002;SDS011;33768;48.578;11.574;2022-09-24T03:03:29;9.70;;;6.83;;
48002;SDS011;33768;48.578;11.574;2022-09-24T03:06:33;9.03;;;6.43;;
48002;SDS011;33768;48.578;11.574;2022-09-24T03:09:38;8.90;;;6.80;;
48002;SDS011;33768;48.578;11.574;2022-09-24T03:12:42;10.17;;;6.43;;
48002;SDS011;33768;48.578;11.574;2022-09-24T03:15:46;9.37;;;7.00;;
48002;SDS011;33768;48.578;11.574;2022-09-24T03:18:51;8.37;;;7.00;;
48002;SDS011;33768;48.578;11.574;2022-09-24T03:21:55;10.93;;;6.87;;
48002;SDS011;33768;48.578;11.574;2022-09-24T03:25:00;7.90;;;7.07;;
48002;SDS011;33768;48.578;11.574;2022-09-24T03:28:05;10.17;;;6.93;;
48002;SDS011;33768;48.578;11.574;2022-09-24T03:31:09;7.83;;;7.03;;
48002;SDS011;33768;48.578;11.574;2022-09-24T03:34:13;10.37;;;7.20;;
48002;SDS011;33768;48.578;11.574;2022-09-24T03:37:17;7.77;;;6.80;;
48002;SDS011;33768;48.578;11.574;2022-09-24T03:40:22;9.13;;;7.00;;
48002;SDS011;33768;48.578;11.574;2022-09-24T03:43:26;8.43;;;7.27;;
48002;SDS011;33768;48.578;11.574;2022-09-24T03:46:31;13.30;;;7.23;;
48002;SDS011;33768;48.578;11.574;2022-09-24T03:49:35;10.10;;;7.63;;
48002;SDS011;33768;48.578;11.574;2022-09-24T03:52:39;10.70;;;7.50;;
48002;SDS011;33768;48.578;11.574;2022-09-24T03:55:44;10.03;;;7.60;;
48002;SDS011;33768;48.578;11.574;2022-09-24T03:58:55;10.23;;;7.30;;
48002;SDS011;33768;48.578;11.574;2022-09-24T04:02:00;8.43;;;7.07;;
48002;SDS011;33768;48.578;11.574;2022-09-24T04:05:04;8.90;;;7.30;;
48002;SDS011;33768;48.578;11.574;2022-09-24T04:08:08;10.27;;;7.50;;
48002;SDS011;33768;48.578;11.574;2022-09-24T04:11:13;8.93;;;6.80;;
48002;SDS011;33768;48.578;11.574;2022-09-24T04:14:17;8.73;;;6.50;;
48002;SDS011;33768;48.578;11.574;2022-09-24T04:17:22;8.63;;;7.20;;
48002;SDS011;33768;48.578;11.574;2022-09-24T04:20:27;9.60;;;7.13;;
48002;SDS011;33768;48.578;11.574;2022-09-24T04:23:32;8.97;;;7.87;;
48002;SDS011;33768;48.578;11.574;2022-09-24T04:26:36;10.77;;;7.87;;
48002;SDS011;33768;48.578;11.574;2022-09-24T04:29:40;13.13;;;7.67;;
48002;SDS011;33768;48.578;11.574;2022-09-24T04:32:45;8.57;;;7.30;;
48002;SDS011;33768;48.578;11.574;2022-09-24T04:35:49;11.33;;;7.90;;
48002;SDS011;33768;48.578;11.574;2022-09-24T04:38:53;11.57;;;7.60;;
48002;SDS011;33768;48.578;11.574;2022-09-24T04:41:57;11.07;;;7.40;;
48002;SDS011;33768;48.578;11.574;2022-09-24T04:45:01;11.13;;;6.83;;
48002;SDS011;33768;48.578;11.574;2022-09-24T04:48:06;11.93;;;7.13;;
48002;SDS011;33768;48.578;11.574;2022-09-24T04:51:10;10.40;;;6.40;;
48002;SDS011;33768;48.578;11.574;2022-09-24T04:54:14;8.47;;;6.70;;
48002;SDS011;33768;48.578;11.574;2022-09-24T04:57:19;10.27;;;7.10;;
48002;SDS011;33768;48.578;11.574;2022-09-24T05:00:23;8.73;;;6.77;;
48002;SDS011;33768;48.578;11.574;2022-09-24T05:03:28;9.43;;;6.73;;
48002;SDS011;33768;48.578;11.574;2022-09-24T05:06:32;9.53;;;6.90;;
48002;SDS011;33768;48.578;11.574;2022-09-24T05:09:36;19.17;;;8.00;;
48002;SDS011;33768;48.578;11.574;2022-09-24T05:12:41;15.60;;;7.83;;
48002;SDS011;33768;48.578;11.574;2022-09-24T05:15:45;10.20;;;8.17;;
48002;SDS011;33768;48.578;11.574;2022-09-24T05:18:49;30.73;;;9.43;;
48002;SDS011;33768;48.578;11.574;2022-09-24T05:21:54;20.63;;;8.87;;
48002;SDS011;33768;48.578;11.574;2022-09-24T05:24:58;20.20;;;9.90;;
48002;SDS011;33768;48.578;11.574;2022-09-24T05:28:02;24.03;;;8.10;;
48002;SDS011;33768;48.578;11.574;2022-09-24T05:31:07;15.23;;;7.87;;
48002;SDS011;33768;48.578;11.574;2022-09-24T05:34:12;13.83;;;7.63;;
48002;SDS011;33768;48.578;11.574;2022-09-24T05:37:17;11.17;;;7.17;;
48002;SDS011;33768;48.578;11.574;2022-09-24T05:40:21;9.03;;;7.20;;
48002;SDS011;33768;48.578;11.574;2022-09-24T05:43:44;11.10;;;7.27;;
48002;SDS011;33768;48.578;11.574;2022-09-24T05:46:48;12.23;;;7.60;;
48002;SDS011;33768;48.578;11.574;2022-09-24T05:49:53;9.03;;;7.40;;
48002;SDS011;33768;48.578;11.574;2022-09-24T05:52:57;7.53;;;6.73;;
48002;SDS011;33768;48.578;11.574;2022-09-24T05:56:01;11.50;;;7.33;;
48002;SDS011;33768;48.578;11.574;2022-09-24T05:59:05;9.07;;;7.80;;
48002;SDS011;33768;48.578;11.574;2022-09-24T06:02:10;14.37;;;7.17;;
48002;SDS011;33768;48.578;11.574;2022-09-24T06:05:16;8.57;;;7.67;;
48002;SDS011;33768;48.578;11.574;2022-09-24T06:08:20;20.70;;;8.07;;
48002;SDS011;33768;48.578;11.574;2022-09-24T06:11:24;18.57;;;8.50;;
48002;SDS011;33768;48.578;11.574;2022-09-24T06:14:35;14.23;;;8.37;;
48002;SDS011;33768;48.578;11.574;2022-09-24T06:17:40;22.00;;;10.80;;
48002;SDS011;33768;48.578;11.574;2022-09-24T06:20:44;19.37;;;10.87;;
48002;SDS011;33768;48.578;11.574;2022-09-24T06:23:49;38.90;;;14.77;;
48002;SDS011;33768;48.578;11.574;2022-09-24T06:26:54;25.50;;;13.13;;
48002;SDS011;33768;48.578;11.574;2022-09-24T06:29:58;23.10;;;10.47;;
48002;SDS011;33768;48.578;11.574;2022-09-24T06:33:03;30.67;;;10.87;;
48002;SDS011;33768;48.578;11.574;2022-09-24T06:36:12;16.80;;;8.83;;
48002;SDS011;33768;48.578;11.574;2022-09-24T06:39:17;14.07;;;9.13;;
48002;SDS011;33768;48.578;11.574;2022-09-24T06:42:21;14.20;;;9.03;;
48002;SDS011;33768;48.578;11.574;2022-09-24T06:45:25;15.50;;;9.17;;
48002;SDS011;33768;48.578;11.574;2022-09-24T06:48:29;16.57;;;8.23;;
48002;SDS011;33768;48.578;11.574;2022-09-24T06:51:34;10.27;;;7.97;;
48002;SDS011;33768;48.578;11.574;2022-09-24T06:54:38;7.93;;;7.13;;
48002;SDS011;33768;48.578;11.574;2022-09-24T06:57:42;9.23;;;7.07;;
48002;SDS011;33768;48.578;11.574;2022-09-24T07:00:53;14.73;;;8.10;;
48002;SDS011;33768;48.578;11.574;2022-09-24T07:04:02;17.10;;;7.77;;
48002;SDS011;33768;48.578;11.574;2022-09-24T07:07:06;18.37;;;8.07;;
48002;SDS011;33768;48.578;11.574;2022-09-24T07:10:29;14.20;;;7.50;;
48002;SDS011;33768;48.578;11.574;2022-09-24T07:13:34;15.07;;;7.37;;
48002;SDS011;33768;48.578;11.574;2022-09-24T07:16:38;17.27;;;8.90;;
48002;SDS011;33768;48.578;11.574;2022-09-24T07:19:42;10.53;;;7.70;;
48002;SDS011;33768;48.578;11.574;2022-09-24T07:22:46;14.23;;;7.50;;
48002;SDS011;33768;48.578;11.574;2022-09-24T07:25:54;10.50;;;7.27;;
48002;SDS011;33768;48.578;11.574;2022-09-24T07:28:59;17.13;;;7.77;;
48002;SDS011;33768;48.578;11.574;2022-09-24T07:32:03;11.13;;;8.10;;
48002;SDS011;33768;48.578;11.574;2022-09-24T07:35:08;16.17;;;8.27;;
48002;SDS011;33768;48.578;11.574;2022-09-24T07:38:12;19.33;;;7.97;;
48002;SDS011;33768;48.578;11.574;2022-09-24T07:41:16;11.17;;;7.60;;
48002;SDS011;33768;48.578;11.574;2022-09-24T07:44:21;17.77;;;8.63;;
48002;SDS011;33768;48.578;11.574;2022-09-24T07:47:25;23.87;;;9.50;;
48002;SDS011;33768;48.578;11.574;2022-09-24T07:50:30;17.87;;;8.17;;
48002;SDS011;33768;48.578;11.574;2022-09-24T07:53:42;15.97;;;8.40;;
48002;SDS011;33768;48.578;11.574;2022-09-24T07:56:46;12.93;;;7.90;;
48002;SDS011;33768;48.578;11.574;2022-09-24T07:59:50;10.67;;;7.37;;
48002;SDS011;33768;48.578;11.574;2022-09-24T08:02:54;12.57;;;8.33;;
48002;SDS011;33768;48.578;11.574;2022-09-24T08:05:59;12.97;;;8.47;;
48002;SDS011;33768;48.578;11.574;2022-09-24T08:09:04;11.63;;;7.87;;
48002;SDS011;33768;48.578;11.574;2022-09-24T08:12:09;11.37;;;9.20;;
48002;SDS011;33768;48.578;11.574;2022-09-24T08:15:17;14.10;;;8.37;;
48002;SDS011;33768;48.578;11.574;2022-09-24T08:18:22;24.50;;;15.87;;
48002;SDS011;33768;48.578;11.574;2022-09-24T08:21:27;19.20;;;11.20;;
48002;SDS011;33768;48.578;11.574;2022-09-24T08:24:31;10.13;;;7.87;;
48002;SDS011;33768;48.578;11.574;2022-09-24T08:27:36;10.43;;;7.83;;
48002;SDS011;33768;48.578;11.574;2022-09-24T08:30:40;9.53;;;7.93;;
48002;SDS011;33768;48.578;11.574;2022-09-24T08:33:44;9.73;;;8.47;;
48002;SDS011;33768;48.578;11.574;2022-09-24T08:36:48;10.70;;;8.37;;
48002;SDS011;33768;48.578;11.574;2022-09-24T08:39:53;13.10;;;9.83;;
48002;SDS011;33768;48.578;11.574;2022-09-24T08:46:42;11.90;;;8.50;;
48002;SDS011;33768;48.578;11.574;2022-09-24T08:50:12;13.23;;;8.33;;
48002;SDS011;33768;48.578;11.574;2022-09-24T08:56:28;10.70;;;8.13;;
48002;SDS011;33768;48.578;11.574;2022-09-24T08:59:36;14.83;;;9.23;;
48002;SDS011;33768;48.578;11.574;2022-09-24T09:06:04;14.57;;;12.43;;
48002;SDS011;33768;48.578;11.574;2022-09-24T09:09:18;11.27;;;10.07;;
48002;SDS011;33768;48.578;11.574;2022-09-24T09:12:26;12.83;;;9.17;;
48002;SDS011;33768;48.578;11.574;2022-09-24T09:16:00;8.13;;;7.33;;
48002;SDS011;33768;48.578;11.574;2022-09-24T09:19:10;11.67;;;7.00;;
48002;SDS011;33768;48.578;11.574;2022-09-24T09:22:18;10.13;;;6.30;;
48002;SDS011;33768;48.578;11.574;2022-09-24T09:25:27;9.37;;;8.47;;
48002;SDS011;33768;48.578;11.574;2022-09-24T09:28:36;11.60;;;10.23;;
48002;SDS011;33768;48.578;11.574;2022-09-24T09:32:04;10.17;;;8.33;;
48002;SDS011;33768;48.578;11.574;2022-09-24T09:35:45;9.17;;;7.30;;
48002;SDS011;33768;48.578;11.574;2022-09-24T09:42:29;20.53;;;15.53;;
48002;SDS011;33768;48.578;11.574;2022-09-24T09:45:45;24.80;;;19.53;;
48002;SDS011;33768;48.578;11.574;2022-09-24T09:49:13;29.20;;;23.40;;
48002;SDS011;33768;48.578;11.574;2022-09-24T09:52:20;24.83;;;20.63;;
48002;SDS011;33768;48.578;11.574;2022-09-24T09:55:28;12.57;;;10.40;;
48002;SDS011;33768;48.578;11.574;2022-09-24T09:58:43;8.87;;;7.97;;
48002;SDS011;33768;48.578;11.574;2022-09-24T10:01:50;8.40;;;7.03;;
48002;SDS011;33768;48.578;11.574;2022-09-24T10:05:02;9.70;;;8.27;;
48002;SDS011;33768;48.578;11.574;2022-09-24T10:08:19;30.67;;;24.87;;
48002;SDS011;33768;48.578;11.574;2022-09-24T10:11:24;22.67;;;17.90;;
48002;SDS011;33768;48.578;11.574;2022-09-24T10:14:28;16.33;;;12.23;;
48002;SDS011;33768;48.578;11.574;2022-09-24T10:17:33;13.30;;;10.20;;
48002;SDS011;33768;48.578;11.574;2022-09-24T10:20:44;11.43;;;8.13;;
48002;SDS011;33768;48.578;11.574;2022-09-24T10:23:50;12.67;;;8.03;;
48002;SDS011;33768;48.578;11.574;2022-09-24T10:26:55;8.33;;;7.33;;
48002;SDS011;33768;48.578;11.574;2022-09-24T10:30:01;10.90;;;8.57;;
48002;SDS011;33768;48.578;11.574;2022-09-24T10:33:37;12.97;;;7.70;;
48002;SDS011;33768;48.578;11.574;2022-09-24T10:36:50;11.90;;;8.20;;
48002;SDS011;33768;48.578;11.574;2022-09-24T10:40:15;9.70;;;8.43;;
48002;SDS011;33768;48.578;11.574;2022-09-24T10:43:26;12.10;;;8.77;;
48002;SDS011;33768;48.578;11.574;2022-09-24T10:46:46;10.50;;;9.40;;
48002;SDS011;33768;48.578;11.574;2022-09-24T10:57:30;10.70;;;9.57;;
48002;SDS011;33768;48.578;11.574;2022-09-24T11:11:00;10.87;;;9.73;;
48002;SDS011;33768;48.578;11.574;2022-09-24T11:14:38;13.03;;;11.37;;
48002;SDS011;33768;48.578;11.574;2022-09-24T11:18:25;12.27;;;10.87;;
48002;SDS011;33768;48.578;11.574;2022-09-24T11:21:56;13.00;;;11.13;;
48002;SDS011;33768;48.578;11.574;2022-09-24T11:42:35;14.33;;;11.90;;
48002;SDS011;33768;48.578;11.574;2022-09-24T11:56:19;15.63;;;11.70;;
48002;SDS011;33768;48.578;11.574;2022-09-24T12:02:53;12.90;;;11.30;;
48002;SDS011;33768;48.578;11.574;2022-09-24T12:06:17;12.37;;;11.03;;
48002;SDS011;33768;48.578;11.574;2022-09-24T12:12:46;14.40;;;11.23;;
48002;SDS011;33768;48.578;11.574;2022-09-24T12:22:31;12.33;;;11.00;;
48002;SDS011;33768;48.578;11.574;2022-09-24T12:25:43;15.83;;;11.97;;
48002;SDS011;33768;48.578;11.574;2022-09-24T12:36:00;13.03;;;11.60;;
48002;SDS011;33768;48.578;11.574;2022-09-24T12:39:24;12.37;;;11.07;;
48002;SDS011;33768;48.578;11.574;2022-09-24T12:42:50;12.33;;;11.03;;
48002;SDS011;33768;48.578;11.574;2022-09-24T12:46:03;12.40;;;11.13;;
48002;SDS011;33768;48.578;11.574;2022-09-24T12:49:23;13.07;;;11.67;;
48002;SDS011;33768;48.578;11.574;2022-09-24T12:52:31;11.53;;;10.30;;
48002;SDS011;33768;48.578;11.574;2022-09-24T12:55:43;14.03;;;10.63;;
48002;SDS011;33768;48.578;11.574;2022-09-24T12:58:48;13.40;;;10.70;;
48002;SDS011;33768;48.578;11.574;2022-09-24T13:01:52;13.47;;;10.93;;
48002;SDS011;33768;48.578;11.574;2022-09-24T13:11:29;14.70;;;11.93;;
48002;SDS011;33768;48.578;11.574;2022-09-24T13:14:40;13.33;;;11.00;;
48002;SDS011;33768;48.578;11.574;2022-09-24T13:17:58;14.57;;;12.07;;
48002;SDS011;33768;48.578;11.574;2022-09-24T13:21:25;12.10;;;10.80;;
48002;SDS011;33768;48.578;11.574;2022-09-24T13:24:32;13.73;;;11.40;;
48002;SDS011;33768;48.578;11.574;2022-09-24T13:27:59;13.83;;;10.67;;
48002;SDS011;33768;48.578;11.574;2022-09-24T13:34:25;15.07;;;12.70;;
48002;SDS011;33768;48.578;11.574;2022-09-24T13:37:33;16.27;;;13.13;;
48002;SDS011;33768;48.578;11.574;2022-09-24T13:40:42;14.80;;;13.30;;
48002;SDS011;33768;48.578;11.574;2022-09-24T13:43:58;14.63;;;13.07;;
48002;SDS011;33768;48.578;11.574;2022-09-24T13:47:12;14.40;;;12.67;;
48002;SDS011;33768;48.578;11.574;2022-09-24T13:50:26;16.73;;;13.70;;
48002;SDS011;33768;48.578;11.574;2022-09-24T13:53:43;14.87;;;13.03;;
48002;SDS011;33768;48.578;11.574;2022-09-24T13:56:57;13.77;;;12.37;;
48002;SDS011;33768;48.578;11.574;2022-09-24T14:09:40;15.40;;;13.57;;
48002;SDS011;33768;48.578;11.574;2022-09-24T14:12:57;16.20;;;13.80;;
48002;SDS011;33768;48.578;11.574;2022-09-24T14:16:06;19.03;;;14.87;;
48002;SDS011;33768;48.578;11.574;2022-09-24T14:19:13;17.37;;;13.97;;
48002;SDS011;33768;48.578;11.574;2022-09-24T14:22:19;14.70;;;12.73;;
48002;SDS011;33768;48.578;11.574;2022-09-24T14:25:31;13.73;;;12.33;;
48002;SDS011;33768;48.578;11.574;2022-09-24T14:28:37;14.37;;;11.47;;
48002;SDS011;33768;48.578;11.574;2022-09-24T14:31:46;12.53;;;11.23;;
48002;SDS011;33768;48.578;11.574;2022-09-24T14:34:53;12.20;;;10.47;;
48002;SDS011;33768;48.578;11.574;2022-09-24T14:38:05;15.57;;;11.33;;
48002;SDS011;33768;48.578;11.574;2022-09-24T14:41:14;13.67;;;11.80;;
48002;SDS011;33768;48.578;11.574;2022-09-24T14:44:24;13.33;;;11.17;;
48002;SDS011;33768;48.578;11.574;2022-09-24T14:47:32;14.03;;;10.63;;
48002;SDS011;33768;48.578;11.574;2022-09-24T14:50:39;15.07;;;11.57;;
48002;SDS011;33768;48.578;11.574;2022-09-24T14:53:43;15.27;;;12.10;;
48002;SDS011;33768;48.578;11.574;2022-09-24T14:56:47;14.27;;;11.10;;
48002;SDS011;33768;48.578;11.574;2022-09-24T14:59:52;14.63;;;10.80;;
48002;SDS011;33768;48.578;11.574;2022-09-24T15:03:03;11.30;;;10.10;;
48002;SDS011;33768;48.578;11.574;2022-09-24T15:06:19;12.73;;;11.40;;
48002;SDS011;33768;48.578;11.574;2022-09-24T15:09:25;11.53;;;10.33;;
48002;SDS011;33768;48.578;11.574;2022-09-24T15:12:35;13.43;;;11.90;;
48002;SDS011;33768;48.578;11.574;2022-09-24T15:15:41;13.27;;;11.83;;
48002;SDS011;33768;48.578;11.574;2022-09-24T15:22:19;13.73;;;11.93;;
48002;SDS011;33768;48.578;11.574;2022-09-24T15:25:29;13.33;;;11.93;;
48002;SDS011;33768;48.578;11.574;2022-09-24T15:28:33;13.43;;;11.70;;
48002;SDS011;33768;48.578;11.574;2022-09-24T15:31:37;13.27;;;11.20;;
48002;SDS011;33768;48.578;11.574;2022-09-24T15:34:41;14.33;;;12.83;;
48002;SDS011;33768;48.578;11.574;2022-09-24T15:37:46;14.23;;;12.33;;
48002;SDS011;33768;48.578;11.574;2022-09-24T15:40:52;15.47;;;12.93;;
48002;SDS011;33768;48.578;11.574;2022-09-24T15:43:56;15.60;;;13.33;;
48002;SDS011;33768;48.578;11.574;2022-09-24T15:47:01;17.13;;;14.13;;
48002;SDS011;33768;48.578;11.574;2022-09-24T15:50:05;15.57;;;13.10;;
48002;SDS011;33768;48.578;11.574;2022-09-24T15:53:16;16.33;;;14.63;;
48002;SDS011;33768;48.578;11.574;2022-09-24T15:56:24;18.63;;;15.90;;
48002;SDS011;33768;48.578;11.574;2022-09-24T15:59:28;16.37;;;13.13;;
48002;SDS011;33768;48.578;11.574;2022-09-24T16:02:33;16.13;;;14.30;;
48002;SDS011;33768;48.578;11.574;2022-09-24T16:05:37;14.60;;;12.07;;
48002;SDS011;33768;48.578;11.574;2022-09-24T16:08:42;14.87;;;13.03;;
48002;SDS011;33768;48.578;11.574;2022-09-24T16:11:46;21.43;;;14.13;;
48002;SDS011;33768;48.578;11.574;2022-09-24T16:14:50;17.57;;;15.10;;
48002;SDS011;33768;48.578;11.574;2022-09-24T16:17:54;16.03;;;14.43;;
48002;SDS011;33768;48.578;11.574;2022-09-24T16:20:58;16.97;;;14.00;;
48002;SDS011;33768;48.578;11.574;2022-09-24T16:24:02;20.87;;;15.60;;
48002;SDS011;33768;48.578;11.574;2022-09-24T16:27:06;17.63;;;15.70;;
48002;SDS011;33768;48.578;11.574;2022-09-24T16:30:11;20.93;;;15.13;;
48002;SDS011;33768;48.578;11.574;2022-09-24T16:33:16;19.70;;;15.97;;
48002;SDS011;33768;48.578;11.574;2022-09-24T16:36:20;18.40;;;15.57;;
48002;SDS011;33768;48.578;11.574;2022-09-24T16:39:26;17.90;;;15.30;;
48002;SDS011;33768;48.578;11.574;2022-09-24T16:42:32;22.37;;;16.63;;
48002;SDS011;33768;48.578;11.574;2022-09-24T16:45:36;21.43;;;15.23;;
48002;SDS011;33768;48.578;11.574;2022-09-24T16:48:41;41.73;;;21.17;;
48002;SDS011;33768;48.578;11.574;2022-09-24T16:51:47;28.27;;;18.60;;
48002;SDS011;33768;48.578;11.574;2022-09-24T16:54:51;33.70;;;18.97;;
48002;SDS011;33768;48.578;11.574;2022-09-24T16:57:55;23.10;;;16.60;;
48002;SDS011;33768;48.578;11.574;2022-09-24T17:01:02;22.67;;;17.23;;
48002;SDS011;33768;48.578;11.574;2022-09-24T17:04:07;20.50;;;17.50;;
48002;SDS011;33768;48.578;11.574;2022-09-24T17:07:12;18.27;;;15.57;;
48002;SDS011;33768;48.578;11.574;2022-09-24T17:10:16;18.53;;;15.27;;
48002;SDS011;33768;48.578;11.574;2022-09-24T17:13:20;20.53;;;16.43;;
48002;SDS011;33768;48.578;11.574;2022-09-24T17:16:26;17.87;;;15.97;;
48002;SDS011;33768;48.578;11.574;2022-09-24T17:19:31;17.53;;;15.60;;
48002;SDS011;33768;48.578;11.574;2022-09-24T17:22:35;18.87;;;16.07;;
48002;SDS011;33768;48.578;11.574;2022-09-24T17:25:40;17.30;;;15.30;;
48002;SDS011;33768;48.578;11.574;2022-09-24T17:28:45;19.03;;;16.50;;
48002;SDS011;33768;48.578;11.574;2022-09-24T17:31:49;18.47;;;16.37;;
48002;SDS011;33768;48.578;11.574;2022-09-24T17:34:53;17.70;;;15.80;;
48002;SDS011;33768;48.578;11.574;2022-09-24T17:37:57;18.43;;;15.70;;
48002;SDS011;33768;48.578;11.574;2022-09-24T17:41:02;18.60;;;14.43;;
48002;SDS011;33768;48.578;11.574;2022-09-24T17:44:09;17.70;;;15.40;;
48002;SDS011;33768;48.578;11.574;2022-09-24T17:47:15;18.33;;;14.93;;
48002;SDS011;33768;48.578;11.574;2022-09-24T17:50:19;16.20;;;14.50;;
48002;SDS011;33768;48.578;11.574;2022-09-24T17:53:23;19.83;;;14.73;;
48002;SDS011;33768;48.578;11.574;2022-09-24T17:56:29;20.10;;;15.03;;
48002;SDS011;33768;48.578;11.574;2022-09-24T17:59:35;17.83;;;14.50;;
48002;SDS011;33768;48.578;11.574;2022-09-24T18:02:39;16.27;;;14.57;;
48002;SDS011;33768;48.578;11.574;2022-09-24T18:05:43;17.07;;;14.07;;
48002;SDS011;33768;48.578;11.574;2022-09-24T18:08:47;16.33;;;13.80;;
48002;SDS011;33768;48.578;11.574;2022-09-24T18:11:51;20.87;;;17.27;;
48002;SDS011;33768;48.578;11.574;2022-09-24T18:14:56;19.07;;;16.83;;
48002;SDS011;33768;48.578;11.574;2022-09-24T18:18:00;21.90;;;18.07;;
48002;SDS011;33768;48.578;11.574;2022-09-24T18:21:05;20.77;;;17.97;;
48002;SDS011;33768;48.578;11.574;2022-09-24T18:24:12;20.13;;;16.47;;
48002;SDS011;33768;48.578;11.574;2022-09-24T18:27:17;21.87;;;16.43;;
48002;SDS011;33768;48.578;11.574;2022-09-24T18:30:21;16.97;;;15.17;;
48002;SDS011;33768;48.578;11.574;2022-09-24T18:33:26;18.03;;;15.23;;
48002;SDS011;33768;48.578;11.574;2022-09-24T18:36:31;22.03;;;17.43;;
48002;SDS011;33768;48.578;11.574;2022-09-24T18:39:36;18.83;;;16.23;;
48002;SDS011;33768;48.578;11.574;2022-09-24T18:42:41;20.37;;;15.83;;
48002;SDS011;33768;48.578;11.574;2022-09-24T18:45:45;19.80;;;16.37;;
48002;SDS011;33768;48.578;11.574;2022-09-24T18:48:50;21.43;;;17.20;;
48002;SDS011;33768;48.578;11.574;2022-09-24T18:51:55;19.57;;;16.40;;
48002;SDS011;33768;48.578;11.574;2022-09-24T18:55:00;18.00;;;15.43;;
48002;SDS011;33768;48.578;11.574;2022-09-24T18:58:05;16.43;;;14.27;;
48002;SDS011;33768;48.578;11.574;2022-09-24T19:01:10;19.70;;;17.70;;
48002;SDS011;33768;48.578;11.574;2022-09-24T19:04:15;27.50;;;17.73;;
48002;SDS011;33768;48.578;11.574;2022-09-24T19:07:19;25.83;;;19.97;;
48002;SDS011;33768;48.578;11.574;2022-09-24T19:10:24;22.80;;;19.33;;
48002;SDS011;33768;48.578;11.574;2022-09-24T19:13:28;27.37;;;20.70;;
48002;SDS011;33768;48.578;11.574;2022-09-24T19:16:33;31.57;;;22.57;;
48002;SDS011;33768;48.578;11.574;2022-09-24T19:19:37;27.50;;;22.03;;
48002;SDS011;33768;48.578;11.574;2022-09-24T19:22:42;29.70;;;22.63;;
48002;SDS011;33768;48.578;11.574;2022-09-24T19:25:51;28.67;;;22.97;;
48002;SDS011;33768;48.578;11.574;2022-09-24T19:28:56;28.13;;;23.07;;
48002;SDS011;33768;48.578;11.574;2022-09-24T19:32:01;29.87;;;22.93;;
48002;SDS011;33768;48.578;11.574;2022-09-24T19:35:06;29.53;;;23.07;;
48002;SDS011;33768;48.578;11.574;2022-09-24T19:38:10;30.20;;;23.70;;
48002;SDS011;33768;48.578;11.574;2022-09-24T19:41:21;29.10;;;22.70;;
48002;SDS011;33768;48.578;11.574;2022-09-24T19:44:29;29.20;;;23.40;;
48002;SDS011;33768;48.578;11.574;2022-09-24T19:47:33;28.27;;;23.50;;
48002;SDS011;33768;48.578;11.574;2022-09-24T19:50:37;33.40;;;24.20;;
48002;SDS011;33768;48.578;11.574;2022-09-24T19:53:41;30.67;;;22.67;;
48002;SDS011;33768;48.578;11.574;2022-09-24T19:56:46;28.77;;;24.47;;
48002;SDS011;33768;48.578;11.574;2022-09-24T19:59:50;33.37;;;23.70;;
48002;SDS011;33768;48.578;11.574;2022-09-24T20:02:54;30.43;;;23.70;;
48002;SDS011;33768;48.578;11.574;2022-09-24T20:05:58;29.80;;;23.97;;
48002;SDS011;33768;48.578;11.574;2022-09-24T20:09:02;28.33;;;23.27;;
48002;SDS011;33768;48.578;11.574;2022-09-24T20:12:07;24.13;;;21.53;;
48002;SDS011;33768;48.578;11.574;2022-09-24T20:15:11;24.73;;;20.97;;